Time;durP1;ratioP1;P1;durP2;ratioP2;P2;SDS_P1;SDS_P2;PMS_P1;PMS_P2;Temp;Humidity;BMP_temperature;BMP_pressure;BME280_temperature;BME280_humidity;BME280_pressure;Samples;Min_cycle;Max_cycle;Signal;HPM_P1;HPM_P2
2023/02/02 07:00:19;;;;;;;7.45;2.67;;;;;;;;;;10554518;28;20381;-85
2023/02/02 07:05:22;;;;;;;;;;;;;;;;;;10555362;28;20474;-86
2023/02/02 07:10:23;;;;;;;14.77;6.35;;;;;;;;;;10554074;28;19919;-85
2023/02/02 07:15:24;;;;;;;12.10;4.68;;;;;;;;;;10557920;28;20036;-85
2023/02/02 07:20:29;;;;;;;11.45;4.45;;;;;;;;;;10555000;28;20029;-86
2023/02/02 07:25:36;;;;;;;9.25;3.88;;;;;;;;;;10551968;28;20394;-86
2023/02/02 07:30:37;;;;;;;11.73;4.80;;;;;;;;;;10554058;28;20043;-85
2023/02/02 07:35:39;;;;;;;39.35;26.70;;;;;;;;;;10554186;28;20065;-85
2023/02/02 07:40:41;;;;;;;34.63;24.27;;;;;;;;;;10552345;28;20045;-85
2023/02/02 07:45:48;;;;;;;12.27;4.68;;;;;;;;;;10536686;28;20415;-85
2023/02/02 07:50:55;;;;;;;7.85;3.15;;;;;;;;;;10551497;28;20039;-84
2023/02/02 07:56:13;;;;;;;78.03;37.05;;;;;;;;;;10551536;28;20031;-86
2023/02/02 08:01:16;;;;;;;7.07;3.00;;;;;;;;;;10550868;28;20055;-85
2023/02/02 08:06:18;;;;;;;6.82;2.53;;;;;;;;;;10522632;28;20017;-82
2023/02/02 08:11:21;;;;;;;6.88;2.50;;;;;;;;;;10526900;28;20078;-82
2023/02/02 08:16:23;;;;;;;7.97;2.92;;;;;;;;;;10519072;28;20028;-80
2023/02/02 08:21:24;;;;;;;8.98;3.40;;;;;;;;;;10520654;28;20051;-80
2023/02/02 08:26:26;;;;;;;6.75;3.10;;;;;;;;;;10513174;28;20029;-80
2023/02/02 08:31:33;;;;;;;7.63;3.80;;;;;;;;;;10514284;28;20032;-80
2023/02/02 08:36:34;;;;;;;10.68;5.13;;;;;;;;;;10511395;28;20036;-80
2023/02/02 08:41:38;;;;;;;8.80;3.95;;;;;;;;;;10514291;28;20462;-80
2023/02/02 08:46:40;;;;;;;8.23;4.60;;;;;;;;;;10509903;28;20032;-80
2023/02/02 08:51:41;;;;;;;7.13;3.88;;;;;;;;;;10531495;28;20029;-81
2023/02/02 08:56:42;;;;;;;8.75;4.00;;;;;;;;;;10523050;28;20410;-80
2023/02/02 09:01:43;;;;;;;7.78;3.80;;;;;;;;;;10516975;28;20035;-81
2023/02/02 09:06:44;;;;;;;;;;;;;;;;;;10531827;28;20020;-80
2023/02/02 09:11:45;;;;;;;4.85;3.38;;;;;;;;;;10531732;28;19957;-80
2023/02/02 09:16:46;;;;;;;7.32;4.07;;;;;;;;;;10512009;28;20044;-80
2023/02/02 09:21:52;;;;;;;7.90;4.40;;;;;;;;;;10508847;28;20401;-81
2023/02/02 09:26:53;;;;;;;7.53;3.72;;;;;;;;;;10510514;28;20040;-82
2023/02/02 09:31:54;;;;;;;6.72;4.00;;;;;;;;;;10513143;28;20064;-81
2023/02/02 09:36:55;;;;;;;7.97;4.63;;;;;;;;;;10512215;28;20047;-80
2023/02/02 09:42:16;;;;;;;8.75;4.75;;;;;;;;;;10519214;28;20028;-81
2023/02/02 09:47:20;;;;;;;7.65;4.15;;;;;;;;;;10524758;28;20152;-81
2023/02/02 09:52:28;;;;;;;6.15;4.03;;;;;;;;;;10510557;28;20394;-80
2023/02/02 09:57:32;;;;;;;7.72;3.90;;;;;;;;;;10510949;28;20078;-80
2023/02/02 10:02:38;;;;;;;7.32;4.15;;;;;;;;;;10509962;28;20035;-81
2023/02/02 10:07:44;;;;;;;8.07;4.43;;;;;;;;;;10511773;28;20032;-80
2023/02/02 10:12:54;;;;;;;5.78;3.80;;;;;;;;;;10507762;28;20107;-80
2023/02/02 10:18:03;;;;;;;7.28;3.65;;;;;;;;;;10508765;28;20024;-80
2023/02/02 10:23:13;;;;;;;8.75;5.20;;;;;;;;;;10510916;28;20071;-80
2023/02/02 10:28:18;;;;;;;8.00;4.10;;;;;;;;;;10512915;28;20416;-80
2023/02/02 10:33:25;;;;;;;8.40;4.47;;;;;;;;;;10521844;28;20059;-81
2023/02/02 10:38:46;;;;;;;8.57;4.32;;;;;;;;;;10519063;28;20032;-82
2023/02/02 10:43:47;;;;;;;;;;;;;;;;;;10519027;28;20119;-80
2023/02/02 10:48:49;;;;;;;8.50;4.05;;;;;;;;;;10504408;28;20380;-81
2023/02/02 10:53:51;;;;;;;11.63;4.70;;;;;;;;;;10509369;28;20039;-81
2023/02/02 10:59:15;;;;;;;8.30;3.92;;;;;;;;;;10506628;28;20082;-80
2023/02/02 11:09:39;;;;;;;9.23;4.60;;;;;;;;;;10510905;28;20413;-79
2023/02/02 11:14:43;;;;;;;9.73;4.90;;;;;;;;;;10506915;28;20028;-79
2023/02/02 11:19:44;;;;;;;11.55;4.38;;;;;;;;;;10506156;28;20123;-79
2023/02/02 11:24:46;;;;;;;7.53;3.60;;;;;;;;;;10505071;28;20024;-78
2023/02/02 11:29:49;;;;;;;10.45;5.00;;;;;;;;;;10504294;28;20025;-80
2023/02/02 11:35:09;;;;;;;7.93;3.88;;;;;;;;;;10502940;28;20020;-79
2023/02/02 11:40:24;;;;;;;9.43;3.70;;;;;;;;;;10512362;28;20035;-79
2023/02/02 11:45:33;;;;;;;8.40;3.30;;;;;;;;;;10513897;28;20020;-80
2023/02/02 11:50:35;;;;;;;7.38;4.20;;;;;;;;;;10514523;28;20043;-79
2023/02/02 11:55:36;;;;;;;9.90;3.70;;;;;;;;;;10515894;28;20052;-79
2023/02/02 12:00:45;;;;;;;9.35;3.90;;;;;;;;;;10515795;28;20088;-80
2023/02/02 12:05:48;;;;;;;7.80;3.45;;;;;;;;;;10521006;28;20023;-82
2023/02/02 12:11:05;;;;;;;11.57;4.93;;;;;;;;;;10514210;28;20086;-80
2023/02/02 12:16:15;;;;;;;6.93;3.65;;;;;;;;;;10517899;28;20482;-80
2023/02/02 12:21:30;;;;;;;9.38;4.00;;;;;;;;;;10518156;28;20052;-80
2023/02/02 12:26:32;;;;;;;9.45;4.53;;;;;;;;;;10516800;28;20028;-80
2023/02/02 12:31:52;;;;;;;7.35;3.10;;;;;;;;;;10516047;28;20028;-80
2023/02/02 12:37:07;;;;;;;7.88;2.80;;;;;;;;;;10515759;28;20029;-80
2023/02/02 12:42:18;;;;;;;6.10;2.58;;;;;;;;;;10525363;28;20044;-79
2023/02/02 12:47:33;;;;;;;12.67;6.10;;;;;;;;;;10522897;28;20031;-80
2023/02/02 12:52:40;;;;;;;5.60;2.47;;;;;;;;;;10516724;28;20051;-81
2023/02/02 12:57:51;;;;;;;9.40;2.92;;;;;;;;;;10513509;28;20085;-81
2023/02/02 13:03:23;;;;;;;7.00;2.80;;;;;;;;;;10513293;28;20074;-81
2023/02/02 13:08:30;;;;;;;7.82;2.95;;;;;;;;;;10516751;28;20024;-80
2023/02/02 13:13:37;;;;;;;6.82;2.92;;;;;;;;;;10529463;28;20055;-80
2023/02/02 13:18:46;;;;;;;8.82;4.45;;;;;;;;;;10529899;28;20039;-80
2023/02/02 13:23:49;;;;;;;7.70;3.15;;;;;;;;;;10522567;28;20102;-80
2023/02/02 13:29:10;;;;;;;7.72;3.90;;;;;;;;;;10513661;28;20036;-81
2023/02/02 13:34:17;;;;;;;9.25;4.18;;;;;;;;;;10509478;28;20449;-80
2023/02/02 13:39:40;;;;;;;7.10;3.33;;;;;;;;;;10513912;28;20028;-79
2023/02/02 13:44:53;;;;;;;6.22;2.50;;;;;;;;;;10510610;28;20028;-81
2023/02/02 13:49:56;;;;;;;6.90;3.53;;;;;;;;;;10516592;28;20195;-79
2023/02/02 13:55:15;;;;;;;9.48;3.15;;;;;;;;;;10515051;28;20064;-79
2023/02/02 14:00:17;;;;;;;6.93;3.10;;;;;;;;;;10512873;28;20020;-80
2023/02/02 14:05:21;;;;;;;20.70;14.18;;;;;;;;;;10513334;28;20017;-79
2023/02/02 14:10:25;;;;;;;6.53;3.65;;;;;;;;;;10514661;28;20095;-79
2023/02/02 14:15:36;;;;;;;8.93;4.32;;;;;;;;;;10516067;28;20040;-80
2023/02/02 14:20:42;;;;;;;7.50;3.63;;;;;;;;;;10513206;28;20024;-79
2023/02/02 14:25:43;;;;;;;6.57;3.17;;;;;;;;;;10517276;28;20032;-80
2023/02/02 14:30:44;;;;;;;;;;;;;;;;;;10520380;28;20475;-81
2023/02/02 14:35:45;;;;;;;8.27;4.30;;;;;;;;;;10518884;28;19889;-82
2023/02/02 14:40:47;;;;;;;;;;;;;;;;;;10516009;28;20051;-81
2023/02/02 14:45:48;;;;;;;6.72;3.50;;;;;;;;;;10516226;28;19905;-79
2023/02/02 14:50:51;;;;;;;5.88;3.40;;;;;;;;;;10520108;28;20163;-80
2023/02/02 14:55:54;;;;;;;6.93;3.00;;;;;;;;;;10522634;28;20038;-80
2023/02/02 15:01:32;;;;;;;7.82;3.50;;;;;;;;;;10515315;28;20059;-81
2023/02/02 15:06:41;;;;;;;6.45;3.47;;;;;;;;;;10516639;28;20028;-83
2023/02/02 15:12:00;;;;;;;5.60;3.00;;;;;;;;;;10519432;28;20075;-80
2023/02/02 15:17:04;;;;;;;9.77;4.60;;;;;;;;;;10525644;28;20028;-81
2023/02/02 15:22:17;;;;;;;5.00;3.15;;;;;;;;;;10524291;28;20029;-79
2023/02/02 15:27:18;;;;;;;8.43;4.55;;;;;;;;;;10520959;28;20193;-81
2023/02/02 15:32:21;;;;;;;7.40;4.55;;;;;;;;;;10519822;28;20092;-82
2023/02/02 15:37:26;;;;;;;6.20;3.28;;;;;;;;;;10521284;28;20036;-83
2023/02/02 15:48:28;;;;;;;11.98;4.45;;;;;;;;;;10642258;27;20613;-81
2023/02/02 15:53:47;;;;;;;8.05;4.43;;;;;;;;;;10633998;27;20091;-83
2023/02/02 15:58:49;;;;;;;7.70;4.28;;;;;;;;;;10634281;27;20114;-80
2023/02/02 16:03:50;;;;;;;7.05;4.20;;;;;;;;;;10649719;27;20498;-81
2023/02/02 16:08:51;;;;;;;;;;;;;;;;;;10629629;27;20023;-81
2023/02/02 16:14:03;;;;;;;6.88;5.10;;;;;;;;;;10631904;27;20364;-81
2023/02/02 16:19:19;;;;;;;5.80;4.63;;;;;;;;;;10630782;27;20096;-81
2023/02/02 16:24:22;;;;;;;6.35;5.28;;;;;;;;;;10629931;27;20055;-82
2023/02/02 16:29:24;;;;;;;6.22;4.43;;;;;;;;;;10632311;27;20031;-83
2023/02/02 16:34:40;;;;;;;7.57;4.28;;;;;;;;;;10630421;27;20546;-82
2023/02/02 16:39:41;;;;;;;5.38;3.42;;;;;;;;;;10646105;27;20043;-83
2023/02/02 16:44:42;;;;;;;;;;;;;;;;;;10627306;27;20460;-82
2023/02/02 16:49:44;;;;;;;8.23;6.20;;;;;;;;;;10629943;27;19912;-82
2023/02/02 16:54:50;;;;;;;5.35;4.15;;;;;;;;;;10631393;27;20035;-82
2023/02/02 16:59:53;;;;;;;6.78;4.93;;;;;;;;;;10645001;27;20031;-82
2023/02/02 17:05:03;;;;;;;6.50;4.18;;;;;;;;;;10624932;27;20507;-81
2023/02/02 17:10:17;;;;;;;5.17;3.97;;;;;;;;;;10626223;27;20069;-81
2023/02/02 17:15:18;;;;;;;4.90;2.92;;;;;;;;;;10630595;27;20055;-80
2023/02/02 17:20:19;;;;;;;;;;;;;;;;;;10621447;27;20095;-80
2023/02/02 17:58:58;;;;;;;6.47;5.53;;;;;;;;;;10554012;28;20020;-86
2023/02/02 18:20:48;;;;;;;4.68;4.20;;;;;;;;;;10544842;28;20107;-87
2023/02/02 18:25:51;;;;;;;3.83;2.92;;;;;;;;;;10552850;28;20058;-87
2023/02/02 18:30:52;;;;;;;4.40;3.22;;;;;;;;;;10558003;28;20055;-87
2023/02/02 18:35:53;;;;;;;;;;;;;;;;;;10532740;28;20032;-88
2023/02/02 18:40:56;;;;;;;3.70;2.95;;;;;;;;;;10526577;28;19912;-88
2023/02/02 18:46:01;;;;;;;5.38;3.63;;;;;;;;;;10526042;28;20032;-88
2023/02/02 18:51:05;;;;;;;5.10;4.57;;;;;;;;;;10526335;28;20036;-88
2023/02/02 18:56:08;;;;;;;3.45;2.67;;;;;;;;;;10530535;28;20043;-87
2023/02/02 19:01:10;;;;;;;6.22;5.63;;;;;;;;;;10514172;28;20109;-88
2023/02/02 19:11:37;;;;;;;5.20;4.70;;;;;;;;;;10545911;28;20036;-87
2023/02/02 19:16:39;;;;;;;8.48;7.38;;;;;;;;;;10531280;28;20486;-89
2023/02/02 19:21:44;;;;;;;6.68;5.95;;;;;;;;;;10527112;28;20040;-88
2023/02/02 19:26:46;;;;;;;7.60;6.80;;;;;;;;;;10528494;28;20032;-88
2023/02/02 19:31:58;;;;;;;9.00;6.60;;;;;;;;;;10534929;28;20246;-88
2023/02/02 19:37:00;;;;;;;7.13;6.43;;;;;;;;;;10529617;28;20111;-88
2023/02/02 19:42:01;;;;;;;10.38;8.20;;;;;;;;;;10537202;28;20136;-88
2023/02/02 19:47:19;;;;;;;6.93;5.88;;;;;;;;;;10556885;28;20028;-86
2023/02/02 19:52:25;;;;;;;10.82;8.45;;;;;;;;;;10564283;28;20036;-88
2023/02/02 19:57:29;;;;;;;12.65;8.18;;;;;;;;;;10550524;28;20039;-88
2023/02/02 20:02:31;;;;;;;10.52;8.77;;;;;;;;;;10575144;28;20032;-88
2023/02/02 20:07:32;;;;;;;;;;;;;;;;;;10567116;28;20032;-88
2023/02/02 20:12:33;;;;;;;10.05;8.45;;;;;;;;;;10543187;28;19959;-88
2023/02/02 20:17:36;;;;;;;8.38;7.00;;;;;;;;;;10538732;28;20032;-87
